Time;durP1;ratioP1;P1;durP2;ratioP2;P2;SDS_P1;SDS_P2;PMS_P1;PMS_P2;Temp;Humidity;BMP_temperature;BMP_pressure;BME280_temperature;BME280_humidity;BME280_pressure;Samples;Min_cycle;Max_cycle;Signal;HPM_P1;HPM_P2
2021/03/11 00:00:00;;;;;;;12.50;8.60;;;;;;;;;;5078371;28;20234;-70
2021/03/11 00:02:27;;;;;;;14.83;8.33;;;;;;;;;;5089824;28;20236;-69
2021/03/11 00:04:54;;;;;;;13.03;8.73;;;;;;;;;;5080257;28;20736;-69
2021/03/11 00:07:21;;;;;;;11.50;7.83;;;;;;;;;;5077536;28;20233;-69
2021/03/11 00:09:48;;;;;;;13.30;8.80;;;;;;;;;;5078084;28;20659;-69
2021/03/11 00:12:17;;;;;;;10.30;7.60;;;;;;;;;;5083429;28;20201;-70
2021/03/11 00:14:44;;;;;;;15.60;7.97;;;;;;;;;;5092733;28;20655;-69
2021/03/11 00:17:11;;;;;;;11.47;7.93;;;;;;;;;;5098637;28;20288;-69
2021/03/11 00:19:38;;;;;;;14.13;8.43;;;;;;;;;;5090891;28;20199;-69
2021/03/11 00:22:05;;;;;;;13.20;7.93;;;;;;;;;;5080329;28;20604;-69
2021/03/11 00:24:32;;;;;;;14.20;8.20;;;;;;;;;;5078507;28;20233;-69
2021/03/11 00:26:59;;;;;;;16.10;8.50;;;;;;;;;;5080830;28;20277;-69
2021/03/11 00:29:28;;;;;;;11.80;7.03;;;;;;;;;;5099037;28;20268;-69
2021/03/11 00:31:55;;;;;;;12.67;7.57;;;;;;;;;;5093137;28;20210;-70
2021/03/11 00:34:22;;;;;;;14.20;7.60;;;;;;;;;;5080513;28;20222;-71
2021/03/11 00:36:49;;;;;;;12.13;7.70;;;;;;;;;;5080458;28;20293;-70
2021/03/11 00:39:17;;;;;;;12.90;8.00;;;;;;;;;;5077960;28;20313;-70
2021/03/11 00:41:44;;;;;;;11.90;7.43;;;;;;;;;;5076996;28;20273;-69
2021/03/11 00:44:11;;;;;;;12.03;7.60;;;;;;;;;;5076908;28;20290;-70
2021/03/11 00:46:39;;;;;;;12.33;7.70;;;;;;;;;;5089024;28;20284;-69
2021/03/11 00:49:07;;;;;;;12.17;7.20;;;;;;;;;;5091659;28;20271;-69
2021/03/11 00:51:34;;;;;;;15.97;8.00;;;;;;;;;;5088237;28;20194;-69
2021/03/11 00:54:01;;;;;;;10.77;7.77;;;;;;;;;;5077752;28;20236;-69
2021/03/11 00:56:31;;;;;;;13.13;7.33;;;;;;;;;;5085042;28;20221;-69
2021/03/11 00:58:58;;;;;;;15.30;7.90;;;;;;;;;;5096494;28;20258;-69
2021/03/11 01:01:25;;;;;;;12.47;6.93;;;;;;;;;;5093216;28;20236;-69
2021/03/11 01:03:53;;;;;;;11.47;8.27;;;;;;;;;;5095816;28;20612;-69
2021/03/11 01:06:20;;;;;;;13.70;7.63;;;;;;;;;;5097514;28;20297;-70
2021/03/11 01:08:50;;;;;;;11.20;7.10;;;;;;;;;;5097866;28;20278;-69
2021/03/11 01:11:17;;;;;;;15.63;7.60;;;;;;;;;;5097809;28;20232;-70
2021/03/11 01:13:44;;;;;;;11.03;7.03;;;;;;;;;;5079017;28;20231;-69
2021/03/11 01:16:11;;;;;;;13.30;7.90;;;;;;;;;;5080421;28;20370;-69
2021/03/11 01:18:38;;;;;;;8.77;6.80;;;;;;;;;;5097734;28;20795;-69
2021/03/11 01:21:06;;;;;;;11.40;7.50;;;;;;;;;;5081349;28;20230;-69
2021/03/11 01:23:33;;;;;;;11.73;7.00;;;;;;;;;;5077489;28;20238;-69
2021/03/11 01:26:00;;;;;;;13.80;6.83;;;;;;;;;;5077063;28;20218;-69
2021/03/11 01:28:27;;;;;;;9.67;6.30;;;;;;;;;;5077171;28;20226;-69
2021/03/11 01:30:54;;;;;;;12.13;7.63;;;;;;;;;;5077152;28;20277;-69
2021/03/11 01:33:21;;;;;;;11.73;7.53;;;;;;;;;;5077563;28;20300;-69
2021/03/11 01:35:49;;;;;;;12.17;7.27;;;;;;;;;;5088279;28;20217;-69
2021/03/11 01:38:17;;;;;;;13.50;7.03;;;;;;;;;;5094127;28;20225;-69
2021/03/11 01:40:44;;;;;;;14.07;7.70;;;;;;;;;;5095352;28;20294;-69
2021/03/11 01:43:11;;;;;;;9.13;6.67;;;;;;;;;;5096815;28;20292;-69
2021/03/11 01:45:38;;;;;;;11.53;7.93;;;;;;;;;;5080380;28;20295;-69
2021/03/11 01:48:09;;;;;;;8.80;6.80;;;;;;;;;;5084905;28;20225;-69
2021/03/11 01:50:36;;;;;;;10.70;6.73;;;;;;;;;;5089857;28;20259;-69
2021/03/11 01:53:03;;;;;;;9.80;6.87;;;;;;;;;;5085110;28;20237;-69
2021/03/11 01:55:31;;;;;;;11.60;6.80;;;;;;;;;;5079253;28;20257;-70
2021/03/11 01:57:59;;;;;;;11.77;7.07;;;;;;;;;;5095276;28;20284;-69
2021/03/11 02:00:26;;;;;;;8.77;6.43;;;;;;;;;;5097368;28;20231;-69
2021/03/11 02:02:53;;;;;;;10.17;7.17;;;;;;;;;;5079626;28;20205;-70
2021/03/11 02:05:21;;;;;;;12.00;6.47;;;;;;;;;;5076862;28;20226;-69
2021/03/11 02:07:48;;;;;;;8.73;6.30;;;;;;;;;;5086323;28;20228;-69
2021/03/11 02:10:17;;;;;;;9.53;6.53;;;;;;;;;;5097296;28;20316;-69
2021/03/11 02:12:48;;;;;;;9.87;6.67;;;;;;;;;;5086761;28;20226;-69
2021/03/11 02:15:20;;;;;;;11.47;6.83;;;;;;;;;;5077177;28;20294;-69
2021/03/11 02:17:52;;;;;;;14.03;6.73;;;;;;;;;;5086280;28;20206;-69
2021/03/11 02:20:29;;;;;;;10.80;6.93;;;;;;;;;;5088123;28;20277;-69
2021/03/11 02:23:07;;;;;;;11.73;7.10;;;;;;;;;;5084861;28;20727;-70
2021/03/11 02:25:42;;;;;;;12.73;7.17;;;;;;;;;;5099417;28;20677;-69
2021/03/11 02:28:13;;;;;;;11.10;7.47;;;;;;;;;;5079826;28;20647;-69
2021/03/11 02:30:41;;;;;;;9.60;6.87;;;;;;;;;;5080319;28;20241;-69
2021/03/11 02:33:09;;;;;;;11.03;6.93;;;;;;;;;;5099080;28;20692;-69
2021/03/11 02:35:38;;;;;;;8.67;6.23;;;;;;;;;;5100245;28;20249;-69
2021/03/11 02:38:06;;;;;;;10.43;6.10;;;;;;;;;;5093405;28;20320;-69
2021/03/11 02:40:34;;;;;;;9.47;6.47;;;;;;;;;;5101195;28;20225;-69
2021/03/11 02:43:02;;;;;;;8.93;6.27;;;;;;;;;;5091482;28;20285;-69
2021/03/11 02:45:31;;;;;;;10.20;6.13;;;;;;;;;;5079905;28;20218;-69
2021/03/11 02:48:00;;;;;;;12.10;6.10;;;;;;;;;;5079086;28;20768;-69
2021/03/11 02:50:28;;;;;;;8.43;6.27;;;;;;;;;;5099852;28;20237;-69
2021/03/11 02:52:55;;;;;;;9.57;5.63;;;;;;;;;;5096325;28;20677;-69
2021/03/11 02:55:23;;;;;;;7.80;5.57;;;;;;;;;;5078969;28;20772;-69
2021/03/11 02:57:51;;;;;;;9.30;5.27;;;;;;;;;;5095234;28;20232;-69
2021/03/11 03:00:19;;;;;;;7.37;5.30;;;;;;;;;;5100008;28;20263;-69
2021/03/11 03:02:46;;;;;;;8.63;5.47;;;;;;;;;;5098771;28;20229;-69
2021/03/11 03:05:15;;;;;;;8.13;5.10;;;;;;;;;;5099622;28;20700;-69
2021/03/11 03:07:44;;;;;;;7.27;5.13;;;;;;;;;;5097692;28;20202;-69
2021/03/11 03:10:12;;;;;;;7.97;4.33;;;;;;;;;;5099957;28;20275;-69
2021/03/11 03:12:39;;;;;;;6.47;4.43;;;;;;;;;;5098789;28;20229;-69
2021/03/11 03:15:08;;;;;;;7.37;4.23;;;;;;;;;;5099795;28;20265;-69
2021/03/11 03:17:35;;;;;;;6.53;3.93;;;;;;;;;;5093616;28;20261;-69
2021/03/11 03:20:05;;;;;;;6.50;4.83;;;;;;;;;;5093896;28;20198;-70
2021/03/11 03:22:33;;;;;;;5.53;4.43;;;;;;;;;;5095059;28;20236;-70
2021/03/11 03:25:00;;;;;;;9.37;5.20;;;;;;;;;;5099759;28;20304;-69
2021/03/11 03:27:27;;;;;;;6.67;4.97;;;;;;;;;;5099937;28;20292;-70
2021/03/11 03:29:54;;;;;;;9.33;5.27;;;;;;;;;;5078767;28;20310;-69
2021/03/11 03:32:22;;;;;;;9.97;5.97;;;;;;;;;;5079192;28;20670;-70
2021/03/11 03:34:49;;;;;;;10.87;6.10;;;;;;;;;;5092163;28;20240;-70
2021/03/11 03:37:16;;;;;;;9.33;5.70;;;;;;;;;;5078635;28;20289;-70
2021/03/11 03:39:44;;;;;;;7.33;6.27;;;;;;;;;;5088778;28;20255;-70
2021/03/11 03:42:12;;;;;;;8.13;5.43;;;;;;;;;;5096835;28;20213;-69
2021/03/11 03:44:41;;;;;;;7.20;5.50;;;;;;;;;;5098601;28;20219;-71
2021/03/11 03:47:09;;;;;;;9.83;6.00;;;;;;;;;;5097445;28;20213;-70
2021/03/11 03:49:38;;;;;;;8.83;5.43;;;;;;;;;;5084846;28;20221;-70
2021/03/11 03:52:06;;;;;;;8.83;5.43;;;;;;;;;;5078588;28;20238;-71
2021/03/11 03:54:36;;;;;;;8.43;5.80;;;;;;;;;;5089154;28;20305;-71
2021/03/11 03:57:07;;;;;;;8.13;5.60;;;;;;;;;;5085891;28;20648;-70
2021/03/11 03:59:35;;;;;;;8.47;6.40;;;;;;;;;;5097591;28;20273;-71
2021/03/11 04:02:04;;;;;;;10.70;6.13;;;;;;;;;;5078135;28;20761;-70
2021/03/11 04:04:33;;;;;;;8.03;5.93;;;;;;;;;;5078191;28;20222;-70
2021/03/11 04:07:01;;;;;;;9.43;6.30;;;;;;;;;;5084263;28;20194;-70
2021/03/11 04:09:29;;;;;;;8.27;6.03;;;;;;;;;;5099059;28;20740;-70
2021/03/11 04:11:57;;;;;;;10.63;6.40;;;;;;;;;;5094803;28;20230;-70
2021/03/11 04:14:25;;;;;;;8.07;5.90;;;;;;;;;;5078204;28;20784;-70
2021/03/11 04:16:53;;;;;;;10.83;6.13;;;;;;;;;;5078163;28;20281;-70
2021/03/11 04:19:20;;;;;;;12.33;6.30;;;;;;;;;;5078387;28;20202;-70
2021/03/11 04:21:47;;;;;;;10.93;6.63;;;;;;;;;;5079005;28;20633;-70
2021/03/11 04:24:15;;;;;;;8.47;5.47;;;;;;;;;;5098639;28;20320;-70
2021/03/11 04:26:43;;;;;;;8.90;6.20;;;;;;;;;;5078560;28;20273;-70
2021/03/11 04:29:10;;;;;;;9.10;6.03;;;;;;;;;;5078029;28;20653;-70
2021/03/11 04:31:38;;;;;;;9.83;5.97;;;;;;;;;;5078017;28;20206;-70
2021/03/11 04:34:05;;;;;;;7.77;5.33;;;;;;;;;;5078299;28;20214;-69
2021/03/11 04:36:33;;;;;;;7.17;5.40;;;;;;;;;;5079317;28;20241;-69
2021/03/11 04:39:00;;;;;;;8.23;5.50;;;;;;;;;;5078988;28;20225;-69
2021/03/11 04:41:28;;;;;;;11.17;6.30;;;;;;;;;;5078035;28;20244;-68
2021/03/11 04:43:55;;;;;;;9.47;5.93;;;;;;;;;;5077307;28;20284;-69
2021/03/11 04:46:23;;;;;;;8.07;5.53;;;;;;;;;;5086053;28;20202;-68
2021/03/11 04:48:51;;;;;;;7.50;5.57;;;;;;;;;;5077826;28;20575;-68
2021/03/11 04:51:18;;;;;;;8.70;4.77;;;;;;;;;;5077235;28;20317;-68
2021/03/11 04:53:46;;;;;;;7.23;4.83;;;;;;;;;;5077884;28;20202;-68
2021/03/11 04:56:15;;;;;;;8.30;4.50;;;;;;;;;;5077498;28;20220;-69
2021/03/11 04:58:42;;;;;;;6.33;3.97;;;;;;;;;;5077801;28;20210;-70
2021/03/11 05:01:10;;;;;;;7.17;4.30;;;;;;;;;;5089282;28;20568;-69
2021/03/11 05:03:38;;;;;;;9.17;3.90;;;;;;;;;;5092437;28;20285;-68
2021/03/11 05:06:06;;;;;;;6.60;3.90;;;;;;;;;;5077259;28;20309;-69
2021/03/11 05:08:33;;;;;;;6.87;3.77;;;;;;;;;;5077401;28;20281;-69
2021/03/11 05:11:00;;;;;;;5.93;3.70;;;;;;;;;;5077188;28;20290;-68
2021/03/11 05:13:30;;;;;;;7.07;3.93;;;;;;;;;;5077774;28;20249;-69
2021/03/11 05:15:57;;;;;;;11.13;3.60;;;;;;;;;;5083861;28;20620;-68
2021/03/11 05:18:24;;;;;;;6.97;4.70;;;;;;;;;;5079885;28;20205;-68
2021/03/11 05:20:52;;;;;;;5.57;3.90;;;;;;;;;;5079001;28;20201;-68
2021/03/11 05:23:20;;;;;;;6.57;3.63;;;;;;;;;;5077231;28;20289;-68
2021/03/11 05:25:47;;;;;;;4.33;3.63;;;;;;;;;;5080622;28;20300;-69
2021/03/11 05:28:15;;;;;;;4.90;3.73;;;;;;;;;;5081501;28;20290;-70
2021/03/11 05:30:42;;;;;;;5.43;3.53;;;;;;;;;;5076924;28;20251;-70
2021/03/11 05:33:09;;;;;;;5.73;3.67;;;;;;;;;;5077653;28;20260;-70
2021/03/11 05:35:36;;;;;;;6.10;4.23;;;;;;;;;;5090640;28;20252;-69
2021/03/11 05:38:03;;;;;;;7.23;3.93;;;;;;;;;;5091360;28;20280;-70
2021/03/11 05:40:31;;;;;;;6.87;4.63;;;;;;;;;;5089183;28;20222;-70
2021/03/11 05:42:59;;;;;;;7.63;4.10;;;;;;;;;;5077132;28;20245;-69
2021/03/11 05:45:27;;;;;;;6.07;3.83;;;;;;;;;;5080077;28;20258;-68
2021/03/11 05:47:54;;;;;;;6.33;3.87;;;;;;;;;;5094933;28;20261;-68
2021/03/11 05:50:22;;;;;;;5.53;3.90;;;;;;;;;;5098779;28;20228;-68
2021/03/11 05:52:51;;;;;;;5.87;4.27;;;;;;;;;;5092162;28;20202;-68
2021/03/11 05:55:18;;;;;;;5.73;4.30;;;;;;;;;;5080741;28;20233;-69
2021/03/11 05:57:47;;;;;;;6.37;4.53;;;;;;;;;;5090986;28;20201;-68
2021/03/11 06:00:15;;;;;;;5.07;3.93;;;;;;;;;;5100993;28;20229;-69
2021/03/11 06:02:43;;;;;;;7.53;4.13;;;;;;;;;;5099044;28;20206;-69
2021/03/11 06:05:11;;;;;;;7.57;4.23;;;;;;;;;;5099742;28;20631;-70
2021/03/11 06:07:42;;;;;;;5.93;3.77;;;;;;;;;;5099972;28;20641;-70
2021/03/11 06:10:11;;;;;;;8.40;4.63;;;;;;;;;;5100801;28;20780;-70
2021/03/11 06:12:38;;;;;;;5.63;4.03;;;;;;;;;;5100124;28;20229;-70
2021/03/11 06:15:09;;;;;;;6.80;4.10;;;;;;;;;;5095402;28;20295;-70
2021/03/11 06:17:38;;;;;;;8.53;4.93;;;;;;;;;;5087654;28;20202;-70
2021/03/11 06:20:07;;;;;;;8.93;4.23;;;;;;;;;;5087419;28;20197;-71
2021/03/11 06:22:34;;;;;;;4.70;4.07;;;;;;;;;;5096574;28;20208;-70
2021/03/11 06:25:01;;;;;;;7.03;4.00;;;;;;;;;;5100490;28;20248;-70
2021/03/11 06:27:28;;;;;;;8.70;4.07;;;;;;;;;;5098802;28;20198;-70
2021/03/11 06:30:00;;;;;;;5.90;4.20;;;;;;;;;;5092707;28;20230;-70
2021/03/11 06:32:28;;;;;;;8.47;4.30;;;;;;;;;;5086775;28;20232;-70
2021/03/11 06:34:55;;;;;;;10.00;4.23;;;;;;;;;;5096724;28;20857;-70
2021/03/11 06:37:39;;;;;;;7.00;3.80;;;;;;;;;;5080855;28;20203;-70
2021/03/11 06:40:13;;;;;;;7.13;3.73;;;;;;;;;;5088872;28;20202;-71
2021/03/11 06:42:40;;;;;;;9.97;4.40;;;;;;;;;;5085560;28;20628;-70
2021/03/11 06:45:25;;;;;;;7.30;3.70;;;;;;;;;;5100128;28;20393;-71
2021/03/11 06:48:13;;;;;;;6.67;4.17;;;;;;;;;;5092315;28;20309;-70
2021/03/11 06:50:40;;;;;;;7.93;4.20;;;;;;;;;;5088909;28;20263;-70
2021/03/11 06:53:07;;;;;;;8.30;4.10;;;;;;;;;;5098778;28;21011;-70
2021/03/11 06:55:34;;;;;;;4.60;4.10;;;;;;;;;;5099103;28;20229;-70
2021/03/11 06:58:20;;;;;;;7.93;3.83;;;;;;;;;;5078418;28;20198;-71
2021/03/11 07:00:47;;;;;;;7.97;4.30;;;;;;;;;;5090404;28;20201;-71
2021/03/11 07:03:15;;;;;;;6.77;4.03;;;;;;;;;;5078061;28;20262;-71
2021/03/11 07:05:43;;;;;;;8.27;4.00;;;;;;;;;;5083259;28;20228;-71
2021/03/11 07:08:13;;;;;;;8.90;4.37;;;;;;;;;;5087554;28;20620;-71
2021/03/11 07:10:41;;;;;;;5.30;3.67;;;;;;;;;;5085824;28;20657;-71
2021/03/11 07:13:08;;;;;;;6.83;3.93;;;;;;;;;;5088909;28;20229;-71
2021/03/11 07:15:36;;;;;;;6.57;3.97;;;;;;;;;;5083358;28;20623;-71
2021/03/11 07:18:06;;;;;;;8.07;4.90;;;;;;;;;;5079490;28;20267;-71
2021/03/11 07:20:35;;;;;;;7.20;4.50;;;;;;;;;;5085601;28;20262;-71
2021/03/11 07:23:03;;;;;;;5.87;3.87;;;;;;;;;;5079431;28;20241;-71
2021/03/11 07:25:31;;;;;;;7.37;3.97;;;;;;;;;;5079145;28;20249;-71
2021/03/11 07:28:01;;;;;;;6.97;4.40;;;;;;;;;;5078681;28;20668;-71
2021/03/11 07:30:29;;;;;;;8.23;4.07;;;;;;;;;;5087507;28;20222;-72
2021/03/11 07:33:00;;;;;;;6.93;4.53;;;;;;;;;;5084525;28;20213;-72
2021/03/11 07:35:28;;;;;;;6.07;3.97;;;;;;;;;;5081406;28;20248;-72
2021/03/11 07:37:58;;;;;;;11.80;5.10;;;;;;;;;;5079075;28;20276;-72
2021/03/11 07:40:25;;;;;;;8.93;4.40;;;;;;;;;;5083574;28;20198;-72
2021/03/11 07:42:53;;;;;;;6.07;3.97;;;;;;;;;;5076994;28;20316;-72
2021/03/11 07:45:20;;;;;;;6.97;4.27;;;;;;;;;;5078557;28;20276;-72
2021/03/11 07:47:48;;;;;;;6.53;4.07;;;;;;;;;;5081053;28;20251;-72
2021/03/11 07:50:15;;;;;;;11.40;4.80;;;;;;;;;;5078319;28;20248;-72
2021/03/11 07:52:42;;;;;;;7.40;4.30;;;;;;;;;;5078728;28;20264;-72
2021/03/11 07:55:11;;;;;;;7.60;4.43;;;;;;;;;;5078662;28;20284;-72
2021/03/11 07:57:41;;;;;;;9.17;3.87;;;;;;;;;;5084828;28;20239;-72
2021/03/11 08:00:09;;;;;;;6.77;4.00;;;;;;;;;;5099149;28;20207;-72
2021/03/11 08:02:37;;;;;;;8.10;4.33;;;;;;;;;;5098626;28;20205;-72
2021/03/11 08:05:24;;;;;;;8.03;4.07;;;;;;;;;;5098322;28;20225;-72
2021/03/11 08:08:05;;;;;;;4.43;4.03;;;;;;;;;;5098829;28;20213;-71
2021/03/11 08:10:39;;;;;;;5.97;4.00;;;;;;;;;;5098276;28;20316;-71
2021/03/11 08:13:25;;;;;;;8.40;4.10;;;;;;;;;;5098584;28;20237;-71
2021/03/11 08:15:52;;;;;;;9.07;3.57;;;;;;;;;;5081880;28;20275;-71
2021/03/11 08:18:34;;;;;;;6.33;3.93;;;;;;;;;;5078470;28;20288;-71
2021/03/11 08:21:01;;;;;;;6.93;3.93;;;;;;;;;;5091853;28;20248;-70
2021/03/11 08:23:31;;;;;;;7.27;3.77;;;;;;;;;;5091252;28;20194;-71
2021/03/11 08:25:59;;;;;;;10.13;3.97;;;;;;;;;;5078152;28;20287;-69
2021/03/11 08:28:39;;;;;;;8.43;4.07;;;;;;;;;;5078164;28;20210;-69
2021/03/11 08:31:07;;;;;;;5.50;4.23;;;;;;;;;;5079220;28;20256;-69
2021/03/11 08:33:55;;;;;;;13.30;4.53;;;;;;;;;;5095141;28;20259;-69
2021/03/11 08:36:33;;;;;;;14.00;4.50;;;;;;;;;;5088902;28;20203;-68
2021/03/11 08:39:01;;;;;;;11.23;4.00;;;;;;;;;;5086764;28;20232;-69
2021/03/11 08:41:33;;;;;;;9.37;3.87;;;;;;;;;;5087954;28;20209;-70
2021/03/11 08:44:02;;;;;;;7.67;4.00;;;;;;;;;;5086423;28;20197;-69
2021/03/11 08:46:49;;;;;;;13.47;4.00;;;;;;;;;;5089226;28;20198;-70
2021/03/11 08:49:36;;;;;;;10.30;3.60;;;;;;;;;;5077561;28;20255;-70
2021/03/11 08:52:04;;;;;;;5.90;3.80;;;;;;;;;;5077645;28;20263;-70
2021/03/11 08:54:32;;;;;;;10.07;4.00;;;;;;;;;;5077960;28;20252;-69
2021/03/11 08:57:00;;;;;;;11.93;3.63;;;;;;;;;;5077360;28;20289;-70
2021/03/11 08:59:47;;;;;;;7.63;3.30;;;;;;;;;;5077574;28;20643;-69
2021/03/11 09:02:31;;;;;;;8.00;3.03;;;;;;;;;;5077821;28;20212;-70
2021/03/11 09:04:58;;;;;;;4.97;2.97;;;;;;;;;;5077516;28;20309;-69
2021/03/11 09:07:29;;;;;;;3.60;2.53;;;;;;;;;;5077682;28;20237;-70
2021/03/11 09:09:57;;;;;;;5.43;2.97;;;;;;;;;;5080683;28;20715;-70
2021/03/11 09:12:31;;;;;;;3.50;2.60;;;;;;;;;;5077584;28;20225;-70
2021/03/11 09:15:01;;;;;;;6.13;2.90;;;;;;;;;;5077757;28;20229;-70
2021/03/11 09:17:29;;;;;;;4.60;2.80;;;;;;;;;;5077896;28;20202;-70
2021/03/11 09:20:00;;;;;;;5.33;2.90;;;;;;;;;;5082680;28;20198;-70
2021/03/11 09:22:31;;;;;;;4.23;2.37;;;;;;;;;;5086640;28;20194;-70
2021/03/11 09:25:07;;;;;;;5.20;2.53;;;;;;;;;;5086045;28;20300;-69
2021/03/11 09:27:36;;;;;;;6.00;2.50;;;;;;;;;;5089109;28;20197;-69
2021/03/11 09:30:20;;;;;;;6.97;2.60;;;;;;;;;;5088561;28;20221;-69
2021/03/11 09:32:47;;;;;;;4.77;2.57;;;;;;;;;;5087077;28;20233;-68
2021/03/11 09:35:16;;;;;;;3.53;2.67;;;;;;;;;;5088563;28;20226;-70
2021/03/11 09:37:53;;;;;;;6.33;2.77;;;;;;;;;;5094395;28;20202;-69
2021/03/11 09:40:25;;;;;;;4.90;2.67;;;;;;;;;;5081094;28;20633;-69
2021/03/11 09:43:14;;;;;;;6.67;3.00;;;;;;;;;;5086358;28;20229;-70
2021/03/11 09:45:43;;;;;;;6.10;2.63;;;;;;;;;;5080168;28;20222;-69
2021/03/11 09:48:11;;;;;;;9.43;3.07;;;;;;;;;;5081359;28;20206;-69
2021/03/11 09:50:40;;;;;;;4.37;2.67;;;;;;;;;;5080583;28;20629;-69
2021/03/11 09:53:07;;;;;;;7.00;2.47;;;;;;;;;;5080416;28;20333;-69
2021/03/11 09:55:34;;;;;;;6.63;2.50;;;;;;;;;;5080765;28;20261;-69
2021/03/11 09:58:02;;;;;;;4.50;2.47;;;;;;;;;;5083471;28;20206;-69
2021/03/11 10:00:43;;;;;;;6.83;2.37;;;;;;;;;;5089613;28;20202;-69
2021/03/11 10:03:20;;;;;;;6.77;2.50;;;;;;;;;;5080748;28;20238;-69
2021/03/11 10:05:51;;;;;;;8.53;2.90;;;;;;;;;;5096152;28;20259;-69
2021/03/11 10:08:34;;;;;;;5.90;2.43;;;;;;;;;;5080939;28;20210;-69
2021/03/11 10:11:03;;;;;;;3.17;2.37;;;;;;;;;;5080556;28;20222;-68
2021/03/11 10:13:38;;;;;;;5.93;2.63;;;;;;;;;;5080924;28;20233;-69
2021/03/11 10:16:07;;;;;;;5.07;3.03;;;;;;;;;;5094117;28;20224;-69
2021/03/11 10:18:34;;;;;;;8.53;2.87;;;;;;;;;;5080225;28;20210;-69
2021/03/11 10:21:06;;;;;;;5.10;2.63;;;;;;;;;;5080341;28;20233;-69
2021/03/11 10:23:33;;;;;;;4.17;2.70;;;;;;;;;;5080501;28;20241;-68
2021/03/11 10:26:13;;;;;;;3.97;2.87;;;;;;;;;;5080289;28;20261;-69
2021/03/11 10:28:41;;;;;;;7.10;2.80;;;;;;;;;;5080331;28;20312;-69
2021/03/11 10:31:10;;;;;;;9.90;3.00;;;;;;;;;;5080223;28;20309;-69
2021/03/11 10:33:38;;;;;;;6.97;2.60;;;;;;;;;;5080204;28;20234;-69
2021/03/11 10:36:13;;;;;;;7.57;3.00;;;;;;;;;;5085386;28;20222;-69
2021/03/11 10:38:40;;;;;;;9.60;3.13;;;;;;;;;;5088477;28;20308;-70
2021/03/11 10:41:14;;;;;;;9.70;2.93;;;;;;;;;;5084974;28;20230;-70
2021/03/11 10:43:42;;;;;;;4.90;2.67;;;;;;;;;;5079949;28;20657;-70
2021/03/11 10:46:14;;;;;;;3.17;2.47;;;;;;;;;;5086633;28;21823;-70
2021/03/11 10:48:48;;;;;;;3.90;3.17;;;;;;;;;;5086609;28;20210;-70
2021/03/11 10:51:19;;;;;;;7.27;3.03;;;;;;;;;;5090608;28;20217;-69
2021/03/11 10:53:47;;;;;;;5.67;2.80;;;;;;;;;;5085014;28;20260;-70
2021/03/11 10:56:14;;;;;;;7.23;2.93;;;;;;;;;;5080246;28;20226;-68
2021/03/11 10:58:41;;;;;;;5.33;3.10;;;;;;;;;;5087273;28;20539;-68
2021/03/11 11:01:28;;;;;;;6.10;3.43;;;;;;;;;;5093016;28;20208;-68
2021/03/11 11:03:55;;;;;;;4.63;2.73;;;;;;;;;;5086006;28;20550;-68
2021/03/11 11:06:23;;;;;;;4.43;3.00;;;;;;;;;;5093614;28;20209;-68
2021/03/11 11:08:50;;;;;;;4.97;2.80;;;;;;;;;;5099799;28;20229;-68
2021/03/11 11:11:17;;;;;;;3.73;2.43;;;;;;;;;;5099129;28;20257;-67
2021/03/11 11:13:45;;;;;;;4.77;3.50;;;;;;;;;;5093112;28;20207;-67
2021/03/11 11:16:12;;;;;;;4.97;3.07;;;;;;;;;;5079126;28;20230;-67
2021/03/11 11:18:40;;;;;;;3.87;2.87;;;;;;;;;;5079113;28;20210;-68
2021/03/11 11:21:07;;;;;;;5.43;3.00;;;;;;;;;;5088011;28;20657;-70
2021/03/11 11:23:35;;;;;;;3.83;2.77;;;;;;;;;;5099186;28;20667;-70
2021/03/11 11:26:02;;;;;;;5.20;4.50;;;;;;;;;;5099165;28;20236;-68
2021/03/11 11:28:29;;;;;;;4.83;2.23;;;;;;;;;;5090579;28;20194;-69
2021/03/11 11:30:56;;;;;;;4.17;2.70;;;;;;;;;;5078779;28;20230;-69
2021/03/11 11:33:24;;;;;;;5.40;2.60;;;;;;;;;;5082079;28;20229;-69
2021/03/11 11:35:52;;;;;;;4.73;2.77;;;;;;;;;;5084167;28;20233;-69
2021/03/11 11:38:20;;;;;;;3.50;2.57;;;;;;;;;;5078977;28;20292;-68
2021/03/11 11:40:48;;;;;;;6.87;3.30;;;;;;;;;;5078972;28;20260;-69
2021/03/11 11:43:15;;;;;;;4.30;2.47;;;;;;;;;;5078503;28;20297;-69
2021/03/11 11:45:42;;;;;;;5.20;2.50;;;;;;;;;;5083260;28;20251;-69
2021/03/11 11:48:09;;;;;;;4.07;2.47;;;;;;;;;;5080863;28;20210;-71
2021/03/11 11:50:46;;;;;;;2.43;2.20;;;;;;;;;;5078382;28;20221;-72
2021/03/11 11:53:15;;;;;;;5.47;2.77;;;;;;;;;;5098500;28;20270;-72
2021/03/11 11:55:43;;;;;;;4.83;2.67;;;;;;;;;;5080970;28;20253;-72
2021/03/11 11:58:10;;;;;;;4.93;2.50;;;;;;;;;;5078394;28;20234;-72
2021/03/11 12:00:37;;;;;;;4.50;2.33;;;;;;;;;;5080504;28;20201;-71
2021/03/11 12:03:05;;;;;;;4.03;2.50;;;;;;;;;;5098611;28;20201;-72
2021/03/11 12:05:33;;;;;;;3.30;2.40;;;;;;;;;;5098134;28;20280;-70
2021/03/11 12:08:01;;;;;;;4.30;2.63;;;;;;;;;;5098481;28;20220;-72
2021/03/11 12:10:29;;;;;;;3.57;2.80;;;;;;;;;;5098138;28;20233;-72
2021/03/11 12:12:56;;;;;;;4.10;2.50;;;;;;;;;;5098212;28;20205;-72
2021/03/11 12:15:24;;;;;;;4.13;2.63;;;;;;;;;;5098377;28;20245;-72
2021/03/11 12:17:51;;;;;;;5.20;3.73;;;;;;;;;;5098264;28;20679;-71
2021/03/11 12:20:32;;;;;;;11.30;3.20;;;;;;;;;;5094732;28;20301;-68
2021/03/11 12:23:01;;;;;;;5.97;2.87;;;;;;;;;;5084646;28;20282;-69
2021/03/11 12:25:28;;;;;;;4.27;3.20;;;;;;;;;;5086045;28;20227;-69
2021/03/11 12:27:55;;;;;;;3.93;3.03;;;;;;;;;;5084990;28;20677;-69
2021/03/11 12:30:23;;;;;;;5.47;3.50;;;;;;;;;;5087102;28;20275;-69
2021/03/11 12:32:51;;;;;;;4.40;3.10;;;;;;;;;;5083904;28;20248;-68
2021/03/11 12:35:18;;;;;;;3.80;3.10;;;;;;;;;;5084527;28;20296;-68
2021/03/11 12:37:46;;;;;;;5.67;3.20;;;;;;;;;;5076764;28;20588;-69
2021/03/11 12:40:14;;;;;;;4.27;3.00;;;;;;;;;;5077138;28;20202;-69
2021/03/11 12:42:46;;;;;;;6.77;3.03;;;;;;;;;;5077087;28;20210;-68
2021/03/11 12:45:14;;;;;;;9.77;3.00;;;;;;;;;;5078076;28;20265;-69
2021/03/11 12:47:41;;;;;;;10.40;4.00;;;;;;;;;;5077947;28;20206;-68
2021/03/11 12:50:09;;;;;;;4.10;3.57;;;;;;;;;;5077588;28;20288;-68
2021/03/11 12:52:36;;;;;;;3.70;3.10;;;;;;;;;;5092200;28;20232;-68
2021/03/11 12:55:05;;;;;;;4.23;3.20;;;;;;;;;;5097631;28;20312;-69
2021/03/11 12:57:32;;;;;;;11.07;4.50;;;;;;;;;;5097746;28;20288;-69
2021/03/11 13:00:01;;;;;;;6.33;3.07;;;;;;;;;;5096585;28;20506;-69
2021/03/11 13:02:28;;;;;;;5.17;2.87;;;;;;;;;;5097465;28;20205;-69
2021/03/11 13:04:55;;;;;;;3.90;3.00;;;;;;;;;;5097423;28;20258;-69
2021/03/11 13:07:23;;;;;;;6.47;2.90;;;;;;;;;;5097863;28;20201;-69
2021/03/11 13:09:50;;;;;;;3.80;2.93;;;;;;;;;;5097516;28;20752;-69
2021/03/11 13:12:17;;;;;;;6.20;2.97;;;;;;;;;;5097611;28;20231;-69
2021/03/11 13:14:44;;;;;;;4.87;2.90;;;;;;;;;;5097482;28;20225;-69
2021/03/11 13:17:13;;;;;;;3.83;2.97;;;;;;;;;;5097685;28;20205;-69
2021/03/11 13:19:40;;;;;;;4.20;2.60;;;;;;;;;;5094580;28;20210;-69
2021/03/11 13:22:07;;;;;;;4.03;3.30;;;;;;;;;;5077134;28;20272;-69
2021/03/11 13:24:34;;;;;;;5.10;2.90;;;;;;;;;;5076954;28;20268;-69
2021/03/11 13:27:02;;;;;;;8.63;3.43;;;;;;;;;;5077353;28;20293;-69
2021/03/11 13:29:29;;;;;;;7.50;3.30;;;;;;;;;;5077374;28;20210;-69
2021/03/11 13:31:56;;;;;;;59.07;12.00;;;;;;;;;;5077236;28;20230;-69
2021/03/11 13:34:24;;;;;;;9.93;3.50;;;;;;;;;;5079629;28;20313;-69
2021/03/11 13:36:51;;;;;;;8.23;4.20;;;;;;;;;;5085222;28;20641;-69
2021/03/11 13:39:18;;;;;;;4.00;3.20;;;;;;;;;;5076853;28;20325;-69
2021/03/11 13:41:45;;;;;;;5.53;2.70;;;;;;;;;;5077209;28;20209;-69
2021/03/11 13:44:12;;;;;;;4.97;2.60;;;;;;;;;;5077128;28;20245;-69
2021/03/11 13:46:40;;;;;;;5.70;3.03;;;;;;;;;;5089702;28;20205;-69
2021/03/11 13:49:08;;;;;;;4.67;2.53;;;;;;;;;;5077588;28;20210;-69
2021/03/11 13:51:36;;;;;;;5.70;2.77;;;;;;;;;;5076547;28;20226;-69
2021/03/11 13:54:04;;;;;;;4.53;2.80;;;;;;;;;;5076883;28;20709;-69
2021/03/11 13:56:31;;;;;;;5.23;3.10;;;;;;;;;;5076943;28;20208;-69
2021/03/11 13:58:57;;;;;;;5.67;2.83;;;;;;;;;;5083630;28;20241;-69
2021/03/11 14:01:26;;;;;;;4.47;3.10;;;;;;;;;;5097369;28;20237;-69
2021/03/11 14:03:53;;;;;;;13.33;3.00;;;;;;;;;;5097207;28;20205;-69
2021/03/11 14:06:21;;;;;;;7.47;3.43;;;;;;;;;;5096860;28;20205;-69
2021/03/11 14:08:48;;;;;;;4.93;2.60;;;;;;;;;;5097110;28;20220;-69
2021/03/11 14:11:16;;;;;;;8.00;3.30;;;;;;;;;;5098413;28;20730;-69
2021/03/11 14:13:42;;;;;;;7.47;3.03;;;;;;;;;;5100655;28;20606;-69
2021/03/11 14:16:10;;;;;;;5.70;2.93;;;;;;;;;;5100644;28;20760;-69
2021/03/11 14:18:38;;;;;;;3.97;2.90;;;;;;;;;;5100443;28;20212;-69
2021/03/11 14:21:05;;;;;;;3.40;2.70;;;;;;;;;;5085744;28;20252;-69
2021/03/11 14:23:32;;;;;;;4.77;2.80;;;;;;;;;;5080063;28;20575;-70
2021/03/11 14:26:01;;;;;;;4.57;2.60;;;;;;;;;;5080460;28;20244;-69
2021/03/11 14:28:28;;;;;;;4.13;2.33;;;;;;;;;;5080201;28;20256;-69
2021/03/11 14:30:55;;;;;;;3.03;2.00;;;;;;;;;;5080239;28;20309;-69
2021/03/11 14:33:23;;;;;;;2.33;1.70;;;;;;;;;;5080100;28;20210;-69
2021/03/11 14:35:50;;;;;;;8.03;2.30;;;;;;;;;;5083488;28;20233;-69
2021/03/11 14:38:17;;;;;;;3.60;2.10;;;;;;;;;;5079606;28;20303;-69
2021/03/11 14:40:44;;;;;;;2.47;2.20;;;;;;;;;;5079842;28;20234;-69
2021/03/11 14:43:12;;;;;;;4.03;2.47;;;;;;;;;;5079761;28;20272;-69
2021/03/11 14:45:39;;;;;;;2.50;2.30;;;;;;;;;;5083794;28;20391;-69
2021/03/11 14:48:07;;;;;;;6.03;1.87;;;;;;;;;;5081679;28;20198;-69
2021/03/11 14:50:35;;;;;;;4.07;2.20;;;;;;;;;;5098323;28;20317;-70